Terminal Aerodrome Forecast
Issued by NWS

Home | Current Version | Previous Version | Text Only | Print | Product List | Glossary On
Versions: 1 2 3 4 5 6 7 8 9 10 11 12 13 14 15 16 17 18 19 20 21 22 23 24 25 26 27 28 29 30 31 32 33 34 35 36
000
FTUS44 KOUN 222326
TAFCSM
TAF
KCSM 222326Z 2300/2324 16018G27KT P6SM OVC006
     FM230300 18014KT 2SM BR OVC004
     FM231200 23014KT 4SM BR SCT015
     FM231600 34020G30KT P6SM BKN030
     FM231900 34025G34KT P6SM BKN030=

USA.gov is the U.S. government's official web portal to all federal, state and local government web resources and services.